createdAt,value
2017-01-10T00:00:54.601Z,72.05
2017-01-10T00:02:04.950Z,71.48
2017-01-10T00:03:15.698Z,71.48
2017-01-10T00:04:26.433Z,72.05
2017-01-10T00:05:37.163Z,72.05
2017-01-10T00:06:47.906Z,71.48
2017-01-10T00:07:58.244Z,72.05
2017-01-10T00:09:08.985Z,71.77
2017-01-10T00:10:19.338Z,72.05
2017-01-10T00:11:29.699Z,72.14
2017-01-10T00:12:40.441Z,72.14
2017-01-10T00:13:51.186Z,72.02
2017-01-10T00:15:01.926Z,72.11
2017-01-10T00:16:12.661Z,71.83
2017-01-10T00:17:23.017Z,71.92
2017-01-10T00:18:33.356Z,71.83
2017-01-10T00:19:44.100Z,71.83
2017-01-10T00:20:54.453Z,72.02
2017-01-10T00:22:05.224Z,72.11
2017-01-10T00:23:15.573Z,72.11
2017-01-10T00:24:25.919Z,71.92
2017-01-10T00:25:36.662Z,72.11
2017-01-10T00:26:46.609Z,72.11
2017-01-10T00:27:56.949Z,72.02
2017-01-10T00:29:07.294Z,71.64
2017-01-10T00:30:18.034Z,71.73
2017-01-10T00:31:28.780Z,72.02
2017-01-10T00:32:38.718Z,72.2
2017-01-10T00:33:49.060Z,72.3
2017-01-10T00:34:59.798Z,72.02
2017-01-10T00:36:10.532Z,72.11
2017-01-10T00:37:21.281Z,71.73
2017-01-10T00:38:31.626Z,71.54
2017-01-10T00:39:42.361Z,71.92
2017-01-10T00:40:52.703Z,72.02
2017-01-10T00:42:03.434Z,71.54
2017-01-10T00:43:14.186Z,71.54
2017-01-10T00:44:24.132Z,71.54
2017-01-10T00:45:34.890Z,71.45
2017-01-10T00:46:45.232Z,71.64
2017-01-10T00:47:55.967Z,71.45
2017-01-10T00:49:06.704Z,71.54
2017-01-10T00:50:17.046Z,71.54
2017-01-10T00:51:27.807Z,71.83
2017-01-10T00:52:38.141Z,71.45
2017-01-10T00:53:48.527Z,71.73
2017-01-10T00:54:59.258Z,71.69
2017-01-10T00:56:09.595Z,71.54
2017-01-10T00:57:19.940Z,71.69
2017-01-10T00:58:30.667Z,71.54
2017-01-10T00:59:41.413Z,71.41
2017-01-10T01:00:52.152Z,71.54
2017-01-10T01:02:02.896Z,71.5
2017-01-10T01:03:13.631Z,71.03
2017-01-10T01:04:24.371Z,71.26
2017-01-10T01:05:34.722Z,71.16
2017-01-10T01:06:45.475Z,71.54
2017-01-10T01:07:56.228Z,71.22
2017-01-10T01:09:06.973Z,71.5
2017-01-10T01:10:17.349Z,71.35
2017-01-10T01:11:28.087Z,71.6
2017-01-10T01:12:38.038Z,71.69
2017-01-10T01:13:48.769Z,71.12
2017-01-10T01:14:59.536Z,71.31
2017-01-10T01:16:10.297Z,71.31
2017-01-10T01:17:21.030Z,71.31
2017-01-10T01:18:31.773Z,71.5
2017-01-10T01:19:42.514Z,71.5
2017-01-10T01:20:53.248Z,71.5
2017-01-10T01:22:03.991Z,71.5
2017-01-10T01:23:14.728Z,71.22
2017-01-10T01:24:25.075Z,71.22
2017-01-10T01:25:35.822Z,71.31
2017-01-10T01:26:46.169Z,71.31
2017-01-10T01:27:56.907Z,71.41
2017-01-10T01:29:07.648Z,71.03
2017-01-10T01:30:18.374Z,71.31
2017-01-10T01:31:29.121Z,71.6
2017-01-10T01:32:39.853Z,71.12
2017-01-10T01:33:50.576Z,71.41
2017-01-10T01:35:00.514Z,71.5
2017-01-10T01:36:11.251Z,71.69
2017-01-10T01:37:21.583Z,71.03
2017-01-10T01:38:32.333Z,71.5
2017-01-10T01:39:43.064Z,71.41
2017-01-10T01:40:53.803Z,71.41
2017-01-10T01:42:04.526Z,71.31
2017-01-10T01:43:14.472Z,71.12
2017-01-10T01:44:24.839Z,71.03
2017-01-10T01:45:35.587Z,71.12
2017-01-10T01:46:46.584Z,71.22
2017-01-10T01:47:57.329Z,71.12
2017-01-10T01:49:06.875Z,71.31
2017-01-10T01:50:17.205Z,71.22
2017-01-10T01:51:27.944Z,71.31
2017-01-10T01:52:38.681Z,71.41
2017-01-10T01:53:49.441Z,71.41
2017-01-10T01:55:00.175Z,71.31
2017-01-10T01:56:10.951Z,71.12
2017-01-10T01:57:21.704Z,71.03
2017-01-10T01:58:32.437Z,71.41
2017-01-10T01:59:42.386Z,71.41
2017-01-10T02:00:53.128Z,71.5
2017-01-10T02:02:03.940Z,71.41
2017-01-10T02:03:14.688Z,71.31
2017-01-10T02:04:25.419Z,71.41
2017-01-10T02:05:36.164Z,71.41
2017-01-10T02:06:46.906Z,71.6
2017-01-10T02:07:57.644Z,71.31
2017-01-10T02:09:08.379Z,71.6
2017-01-10T02:10:18.731Z,71.31
2017-01-10T02:11:29.474Z,71.5
2017-01-10T02:12:39.825Z,71.31
2017-01-10T02:13:50.562Z,71.6
2017-01-10T02:15:01.298Z,71.5
2017-01-10T02:16:12.036Z,71.6
2017-01-10T02:17:22.371Z,71.6
2017-01-10T02:18:33.099Z,71.5
2017-01-10T02:19:43.436Z,71.6
2017-01-10T02:20:54.176Z,71.6
2017-01-10T02:22:04.905Z,71.6
2017-01-10T02:23:15.241Z,71.5
2017-01-10T02:24:25.997Z,71.41
2017-01-10T02:25:36.740Z,71.41
2017-01-10T02:26:47.472Z,71.03
2017-01-10T02:27:57.819Z,70.84
2017-01-10T02:29:08.169Z,70.75
2017-01-10T02:30:18.904Z,71.22
2017-01-10T02:31:29.649Z,71.22
2017-01-10T02:32:40.378Z,71.03
2017-01-10T02:33:51.103Z,70.75
2017-01-10T02:35:01.848Z,70.94
2017-01-10T02:36:12.587Z,70.72
2017-01-10T02:37:22.914Z,70.94
2017-01-10T02:38:33.263Z,71
2017-01-10T02:39:43.992Z,70.81
2017-01-10T02:40:54.337Z,71
2017-01-10T02:42:05.070Z,71.28
2017-01-10T02:43:15.411Z,71
2017-01-10T02:44:26.147Z,71.47
2017-01-10T02:45:36.911Z,71.47
2017-01-10T02:46:47.646Z,71.47
2017-01-10T02:47:58.375Z,70.72
2017-01-10T02:49:09.139Z,71
2017-01-10T02:50:20.102Z,71
2017-01-10T02:51:30.848Z,70.9
2017-01-10T02:52:41.192Z,70.9
2017-01-10T02:53:51.537Z,70.81
2017-01-10T02:55:02.280Z,71
2017-01-10T02:56:13.006Z,71
2017-01-10T02:57:23.352Z,71.09
2017-01-10T02:58:34.092Z,71
2017-01-10T02:59:44.834Z,70.9
2017-01-10T03:00:55.175Z,71
2017-01-10T03:02:05.117Z,71.09
2017-01-10T03:33:46.879Z,67.59
2017-01-10T03:34:57.620Z,68.15
2017-01-10T03:36:08.347Z,69.29
2017-01-10T03:37:19.068Z,70.23
2017-01-10T03:38:29.410Z,71.36
2017-01-10T03:39:39.733Z,72.25
2017-01-10T03:40:50.473Z,72.53
2017-01-10T03:42:01.204Z,72.72
2017-01-10T03:43:11.969Z,72.91
2017-01-10T03:44:22.300Z,73.1
2017-01-10T03:45:32.632Z,72.81
2017-01-10T03:46:43.353Z,72.62
2017-01-10T03:47:54.108Z,72.91
2017-01-10T03:49:04.856Z,72.38
2017-01-10T03:50:15.208Z,72.47
2017-01-10T03:51:25.948Z,72.66
2017-01-10T03:52:36.709Z,72
2017-01-10T03:53:47.439Z,72.09
2017-01-10T03:54:58.173Z,72
2017-01-10T03:56:08.903Z,72.28
2017-01-10T03:57:19.656Z,72.28
2017-01-10T03:58:30.385Z,71.43
2017-01-10T03:59:41.162Z,71.81
2017-01-10T04:01:36.304Z,71.72
2017-01-10T04:02:47.037Z,72
2017-01-10T04:03:57.764Z,71.91
2017-01-10T04:05:08.511Z,71.47
2017-01-10T04:06:19.246Z,71.66
2017-01-10T04:07:29.579Z,71.53
2017-01-10T04:08:39.924Z,71.56
2017-01-10T04:09:50.256Z,71.47
2017-01-10T04:11:00.995Z,71.62
2017-01-10T04:12:11.330Z,71.34
2017-01-10T04:13:22.077Z,71.28
2017-01-10T04:14:32.416Z,71.47
2017-01-10T04:15:43.155Z,71.47
2017-01-10T04:16:53.516Z,71.75
2017-01-10T04:18:03.853Z,71.47
2017-01-10T04:19:14.585Z,71.37
2017-01-10T04:20:25.308Z,71.09
2017-01-10T04:21:35.251Z,71.09
2017-01-10T04:22:45.584Z,71.28
2017-01-10T04:23:56.320Z,71.28
2017-01-10T04:25:06.661Z,71.19
2017-01-10T04:26:17.012Z,71.56
2017-01-10T04:27:27.749Z,71.56
2017-01-10T04:28:38.483Z,71
2017-01-10T04:29:49.214Z,71.28
2017-01-10T04:30:59.953Z,71.56
2017-01-10T04:32:10.684Z,71.28
2017-01-10T04:33:21.413Z,71.47
2017-01-10T04:34:32.151Z,71.56
2017-01-10T04:35:42.843Z,71.28
2017-01-10T04:36:53.567Z,71.37
2017-01-10T04:38:03.902Z,71.28
2017-01-10T04:39:14.275Z,71
2017-01-10T04:40:25.006Z,71.09
2017-01-10T04:41:35.767Z,71.47
2017-01-10T04:42:46.497Z,71
2017-01-10T04:43:57.236Z,70.72
2017-01-10T04:45:07.984Z,71.37
2017-01-10T04:46:18.319Z,71.28
2017-01-10T04:47:28.651Z,71.28
2017-01-10T04:48:38.982Z,71.47
2017-01-10T04:49:49.311Z,71.56
2017-01-10T04:50:59.663Z,71.37
2017-01-10T04:52:10.422Z,71.28
2017-01-10T04:53:21.170Z,71
2017-01-10T04:54:31.113Z,70.9
2017-01-10T04:55:41.456Z,71
2017-01-10T04:56:52.221Z,71
2017-01-10T04:58:02.948Z,71
2017-01-10T04:59:13.286Z,71.09
2017-01-10T05:00:24.010Z,71.28
2017-01-10T05:01:34.353Z,71.47
2017-01-10T05:02:44.695Z,71.28
2017-01-10T05:03:55.441Z,71.37
2017-01-10T05:05:06.195Z,71.47
2017-01-10T05:06:16.549Z,71.28
2017-01-10T05:07:27.291Z,71.19
2017-01-10T05:08:37.629Z,71
2017-01-10T05:09:47.978Z,71
2017-01-10T05:10:58.712Z,71.28
2017-01-10T05:12:09.059Z,71.47
2017-01-10T05:13:18.996Z,71.28
2017-01-10T05:14:29.737Z,71
2017-01-10T05:15:40.474Z,71
2017-01-10T05:16:51.219Z,71
2017-01-10T05:18:01.948Z,70.9
2017-01-10T05:19:12.285Z,70.72
2017-01-10T05:20:23.031Z,71
2017-01-10T05:21:33.363Z,70.81
2017-01-10T05:22:44.140Z,70.72
2017-01-10T05:23:54.880Z,70.72
2017-01-10T05:25:05.623Z,71.09
2017-01-10T05:26:16.380Z,71.28
2017-01-10T05:27:27.111Z,71.28
2017-01-10T05:28:37.849Z,71.37
2017-01-10T05:29:48.591Z,71.37
2017-01-10T05:30:59.336Z,71.37
2017-01-10T05:32:10.103Z,71.37
2017-01-10T05:33:20.841Z,71.28
2017-01-10T05:34:31.184Z,70.81
2017-01-10T05:35:41.930Z,71.19
2017-01-10T05:36:52.676Z,71.28
2017-01-10T05:38:03.426Z,71.37
2017-01-10T05:39:14.157Z,71.47
2017-01-10T05:40:24.882Z,71.47
2017-01-10T05:41:35.618Z,71
2017-01-10T05:42:45.953Z,70.9
2017-01-10T05:43:56.300Z,70.72
2017-01-10T05:45:06.663Z,71
2017-01-10T05:46:17.007Z,71.28
2017-01-10T05:47:27.753Z,71.37
2017-01-10T05:48:38.093Z,71.28
2017-01-10T05:49:48.840Z,71.37
2017-01-10T05:50:59.568Z,71.37
2017-01-10T05:52:10.325Z,71.28
2017-01-10T05:53:21.074Z,71.37
2017-01-10T05:54:31.811Z,71.28
2017-01-10T05:55:42.540Z,71.28
2017-01-10T05:56:52.871Z,71.28
2017-01-10T05:58:03.603Z,71.28
2017-01-10T05:59:13.943Z,71.56
2017-01-10T06:00:24.716Z,71.56
2017-01-10T06:01:35.458Z,71.28
2017-01-10T06:02:46.206Z,71.28
2017-01-10T06:03:56.550Z,71.56
2017-01-10T06:05:07.288Z,71
2017-01-10T06:06:17.616Z,71.28
2017-01-10T06:07:27.961Z,71.37
2017-01-10T06:08:38.704Z,71
2017-01-10T06:09:49.036Z,71.28
2017-01-10T06:10:59.777Z,71.28
2017-01-10T06:12:10.514Z,71.37
2017-01-10T06:13:20.474Z,71.28
2017-01-10T06:14:31.228Z,71.56
2017-01-10T06:15:41.974Z,71.47
2017-01-10T06:16:52.331Z,71.66
2017-01-10T06:18:03.075Z,71
2017-01-10T06:19:13.803Z,71.56
2017-01-10T06:20:24.145Z,71.28
2017-01-10T06:21:34.888Z,71.56
2017-01-10T06:22:45.625Z,71.37
2017-01-10T06:23:56.351Z,71.28
2017-01-10T06:25:07.098Z,71.19
2017-01-10T06:26:17.830Z,71.09
2017-01-10T06:27:28.572Z,71
2017-01-10T06:28:38.925Z,71
2017-01-10T06:29:49.269Z,71.28
2017-01-10T06:30:59.997Z,71.28
2017-01-10T06:32:10.339Z,71.28
2017-01-10T06:33:21.066Z,71.56
2017-01-10T06:34:31.403Z,71.28
2017-01-10T06:35:42.142Z,71.47
2017-01-10T06:36:52.471Z,71.19
2017-01-10T06:38:02.815Z,71.37
2017-01-10T06:39:13.553Z,71.37
2017-01-10T06:40:24.285Z,71.09
2017-01-10T06:41:35.022Z,71.47
2017-01-10T06:42:45.760Z,71.28
2017-01-10T06:43:56.499Z,71.09
2017-01-10T06:45:07.244Z,71.37
2017-01-10T06:46:18.026Z,71.37
2017-01-10T06:47:28.762Z,71.37
2017-01-10T06:48:39.112Z,71
2017-01-10T06:49:49.865Z,71.47
2017-01-10T06:51:00.597Z,71.28
2017-01-10T06:52:11.325Z,71
2017-01-10T06:53:22.056Z,71.28
2017-01-10T06:54:32.782Z,71.37
2017-01-10T06:55:43.510Z,71.37
2017-01-10T06:56:54.251Z,71.28
2017-01-10T06:58:04.207Z,71.19
2017-01-10T06:59:14.973Z,71.56
2017-01-10T07:00:25.720Z,71.09
2017-01-10T07:01:36.067Z,71.37
2017-01-10T07:02:46.414Z,70.81
2017-01-10T07:03:57.141Z,70.72
2017-01-10T07:05:07.479Z,70.72
2017-01-10T07:06:17.820Z,71
2017-01-10T07:07:28.550Z,70.62
2017-01-10T07:08:39.288Z,71
2017-01-10T07:09:49.628Z,71
2017-01-10T07:11:00.360Z,71.19
2017-01-10T07:12:11.098Z,71
2017-01-10T07:13:21.838Z,70.72
2017-01-10T07:14:32.590Z,71.19
2017-01-10T07:15:43.563Z,71
2017-01-10T07:16:53.899Z,70.81
2017-01-10T07:18:04.647Z,71.09
2017-01-10T07:19:15.611Z,71
2017-01-10T07:20:26.350Z,71.28
2017-01-10T07:21:37.091Z,71.28
2017-01-10T07:22:47.430Z,71.28
2017-01-10T07:23:57.796Z,70.53
2017-01-10T07:25:08.535Z,71
2017-01-10T07:26:19.279Z,70.53
2017-01-10T07:27:30.010Z,70.72
2017-01-10T07:28:40.734Z,70.9
2017-01-10T07:29:51.507Z,71
2017-01-10T07:31:01.847Z,70.62
2017-01-10T07:32:12.190Z,70.81
2017-01-10T07:33:22.918Z,70.53
2017-01-10T07:34:33.659Z,70.15
2017-01-10T07:35:44.005Z,70.15
2017-01-10T07:36:54.778Z,70.53
2017-01-10T07:38:05.506Z,70.62
2017-01-10T07:39:16.254Z,70.15
2017-01-10T07:40:26.611Z,70.53
2017-01-10T07:41:36.950Z,70.34
2017-01-10T07:42:46.903Z,70.53
2017-01-10T07:43:57.638Z,70.56
2017-01-10T07:45:08.376Z,70.43
2017-01-10T07:46:19.116Z,70.84
2017-01-10T07:47:29.853Z,70.62
2017-01-10T07:48:40.591Z,70.72
2017-01-10T07:49:50.928Z,70.56
2017-01-10T07:51:01.300Z,70.37
2017-01-10T07:52:12.052Z,70.47
2017-01-10T07:53:22.798Z,70.56
2017-01-10T07:54:33.546Z,70.65
2017-01-10T07:55:43.884Z,70.65
2017-01-10T07:56:54.229Z,70.47
2017-01-10T07:58:04.965Z,70.65
2017-01-10T07:59:15.316Z,70.56
2017-01-10T08:00:26.063Z,70.65
2017-01-10T08:01:35.997Z,70.37
2017-01-10T08:02:46.342Z,70.18
2017-01-10T08:03:56.704Z,70.18
2017-01-10T08:05:07.435Z,70.28
2017-01-10T08:06:18.176Z,70.18
2017-01-10T08:07:28.915Z,70
2017-01-10T08:08:39.272Z,69.81
2017-01-10T08:09:49.642Z,69.81
2017-01-10T08:10:59.984Z,70.28
2017-01-10T08:12:10.745Z,70.09
2017-01-10T08:13:21.500Z,70.09
2017-01-10T08:14:32.229Z,70
2017-01-10T08:15:42.968Z,70.37
2017-01-10T08:16:53.339Z,70.28
2017-01-10T08:18:03.676Z,70.28
2017-01-10T08:19:14.017Z,70.18
2017-01-10T08:20:24.767Z,70.28
2017-01-10T08:21:35.499Z,69.81
2017-01-10T08:22:45.839Z,69.71
2017-01-10T08:23:56.166Z,69.71
2017-01-10T08:25:06.112Z,69.37
2017-01-10T08:26:17.083Z,69.56
2017-01-10T08:27:27.823Z,69.37
2017-01-10T08:28:38.165Z,69.56
2017-01-10T08:29:48.916Z,69.84
2017-01-10T08:30:59.261Z,69.27
2017-01-10T08:32:09.603Z,69.84
2017-01-10T08:33:19.949Z,69.65
2017-01-10T08:34:30.682Z,69.46
2017-01-10T08:35:41.048Z,69.37
2017-01-10T08:36:50.191Z,69.56
2017-01-10T08:38:00.934Z,69.93
2017-01-10T08:39:11.672Z,69.84
2017-01-10T08:40:22.413Z,69.93
2017-01-10T08:41:33.140Z,69.74
2017-01-10T08:42:43.887Z,69.46
2017-01-10T08:43:54.242Z,69.46
2017-01-10T08:45:04.996Z,69.18
2017-01-10T08:46:15.335Z,69.27
2017-01-10T08:47:26.060Z,68.99
2017-01-10T08:48:36.414Z,69.4
2017-01-10T08:49:46.360Z,68.93
2017-01-10T08:50:57.094Z,68.93
2017-01-10T08:52:07.437Z,68.74
2017-01-10T08:53:17.775Z,68.65
2017-01-10T08:54:28.533Z,68.93
2017-01-10T08:55:38.891Z,69.21
2017-01-10T08:56:49.696Z,69.31
2017-01-10T08:58:00.054Z,69.21
2017-01-10T08:59:10.403Z,69.49
2017-01-10T09:00:21.134Z,69.59
2017-01-10T09:01:31.888Z,69.37
2017-01-10T09:02:42.635Z,69.56
2017-01-10T09:03:52.981Z,69.56
2017-01-10T09:05:03.728Z,69.27
2017-01-10T09:06:14.470Z,69.56
2017-01-10T09:07:24.809Z,69.46
2017-01-10T09:08:35.554Z,69.56
2017-01-10T09:09:46.291Z,69.56
2017-01-10T09:10:57.018Z,69.65
2017-01-10T09:12:07.756Z,69.65
2017-01-10T09:13:18.087Z,69.65
2017-01-10T09:14:28.823Z,69.56
2017-01-10T09:15:39.551Z,69.65
2017-01-10T09:16:50.300Z,69.84
2017-01-10T09:18:00.247Z,69.84
2017-01-10T09:19:10.590Z,69.93
2017-01-10T09:20:21.327Z,69.46
2017-01-10T09:21:31.673Z,69.56
2017-01-10T09:22:42.021Z,69.56
2017-01-10T09:23:52.783Z,69.56
2017-01-10T09:25:03.522Z,69.84
2017-01-10T09:26:14.272Z,69.56
2017-01-10T09:27:24.612Z,69.56
2017-01-10T09:28:35.370Z,69.65
2017-01-10T09:29:46.113Z,69.65
2017-01-10T09:30:56.457Z,69.4
2017-01-10T09:32:06.829Z,69.87
2017-01-10T09:33:17.557Z,69.31
2017-01-10T09:34:28.322Z,69.37
2017-01-10T09:35:39.067Z,69.37
2017-01-10T09:36:49.795Z,69.37
2017-01-10T09:38:00.153Z,69.56
2017-01-10T09:39:10.893Z,69.84
2017-01-10T09:40:21.632Z,70.21
2017-01-10T09:41:31.975Z,69.74
2017-01-10T09:42:42.321Z,69.65
2017-01-10T09:43:53.062Z,69.37
2017-01-10T09:45:03.454Z,68.99
2017-01-10T09:46:14.211Z,68.8
2017-01-10T09:47:24.929Z,69.18
2017-01-10T09:48:35.668Z,69.37
2017-01-10T09:49:46.410Z,68.9
2017-01-10T09:50:57.160Z,69.09
2017-01-10T09:52:07.512Z,69.46
2017-01-10T09:53:18.251Z,69.65
2017-01-10T09:54:28.999Z,69.46
2017-01-10T09:55:39.336Z,69.56
2017-01-10T09:56:49.680Z,69.65
2017-01-10T09:58:00.414Z,69.56
2017-01-10T09:59:11.168Z,69.18
2017-01-10T10:00:21.915Z,69.56
2017-01-10T10:01:32.275Z,69.37
2017-01-10T10:02:42.619Z,69.56
2017-01-10T10:03:52.568Z,69.46
2017-01-10T10:05:03.321Z,69.65
2017-01-10T10:06:13.263Z,69.84
2017-01-10T10:07:23.983Z,70.12
2017-01-10T10:08:34.310Z,70.21
2017-01-10T10:09:45.050Z,70.03
2017-01-10T10:10:55.013Z,70.12
2017-01-10T10:12:05.745Z,69.93
2017-01-10T10:13:16.484Z,70.12
2017-01-10T10:14:27.248Z,70.12
2017-01-10T10:15:37.995Z,70.31
2017-01-10T10:16:49.734Z,69.37
2017-01-10T10:18:03.027Z,69.65
2017-01-10T10:19:16.854Z,69.84
2017-01-10T10:20:27.746Z,69.37
2017-01-10T10:21:38.091Z,69.65
2017-01-10T10:22:48.449Z,69.37
2017-01-10T10:23:59.502Z,69.84
2017-01-10T10:25:10.312Z,69.27
2017-01-10T10:26:21.048Z,69.37
2017-01-10T10:27:31.416Z,69.46
2017-01-10T10:28:41.767Z,69.18
2017-01-10T10:29:52.631Z,69.27
2017-01-10T10:31:03.425Z,68.8
2017-01-10T10:32:14.200Z,68.99
2017-01-10T10:33:24.604Z,69.27
2017-01-10T10:34:35.369Z,69.12
2017-01-10T10:35:46.133Z,68.74
2017-01-10T10:36:56.151Z,68.27
2017-01-10T10:38:05.795Z,68.27
2017-01-10T10:39:16.633Z,68.02
2017-01-10T10:40:27.512Z,67.45
2017-01-10T10:41:38.335Z,66.98
2017-01-10T10:42:49.604Z,66.79
2017-01-10T10:44:00.650Z,66.35
2017-01-10T10:45:11.053Z,66.53
2017-01-10T10:46:21.890Z,66.53
2017-01-10T10:47:32.270Z,66.63
2017-01-10T10:48:42.654Z,66.47
2017-01-10T10:49:53.021Z,66.47
2017-01-10T10:51:03.793Z,66
2017-01-10T10:52:14.604Z,66.57
2017-01-10T10:53:24.992Z,66.76
2017-01-10T10:54:35.732Z,66.47
2017-01-10T10:55:46.811Z,66.57
2017-01-10T10:56:57.570Z,67.14
2017-01-10T10:58:07.588Z,67.14
2017-01-10T10:59:18.346Z,66.95
2017-01-10T11:00:29.074Z,66.95
2017-01-10T11:01:39.936Z,67.24
2017-01-10T11:02:50.687Z,67.05
2017-01-10T11:04:01.638Z,66.76
2017-01-10T11:05:11.985Z,66.95
2017-01-10T11:06:21.942Z,66.99
2017-01-10T11:07:32.718Z,66.99
2017-01-10T11:08:43.502Z,66.7
2017-01-10T11:09:53.841Z,66.51
2017-01-10T11:11:04.195Z,66.7
2017-01-10T11:12:14.949Z,66.51
2017-01-10T11:13:25.720Z,67.08
2017-01-10T11:14:36.455Z,67.18
2017-01-10T11:15:47.222Z,67.08
2017-01-10T11:16:57.575Z,66.7
2017-01-10T11:18:08.345Z,66.8
2017-01-10T11:19:19.097Z,66.7
2017-01-10T11:20:29.839Z,67.27
2017-01-10T11:21:40.582Z,67.05
2017-01-10T11:22:50.932Z,66.76
2017-01-10T11:24:01.669Z,67.52
2017-01-10T11:25:12.407Z,67.43
2017-01-10T11:26:23.157Z,67.52
2017-01-10T11:27:33.896Z,67.33
2017-01-10T11:28:44.262Z,68.08
2017-01-10T11:29:55.012Z,67.71
2017-01-10T11:31:05.036Z,67.71
2017-01-10T11:32:15.773Z,67.8
2017-01-10T11:33:26.509Z,67.99
2017-01-10T11:34:37.248Z,67.61
2017-01-10T11:35:47.981Z,67.61
2017-01-10T11:36:58.338Z,67.61
2017-01-10T11:38:09.100Z,68.18
2017-01-10T11:39:19.829Z,67.99
2017-01-10T11:40:30.576Z,68.75
2017-01-10T11:41:41.307Z,68.27
2017-01-10T11:42:51.258Z,69.09
2017-01-10T11:44:02.015Z,69.47
2017-01-10T11:45:12.352Z,69.72
2017-01-10T11:46:22.699Z,70.48
2017-01-10T11:47:33.440Z,70.86
2017-01-10T11:48:43.805Z,70.39
2017-01-10T11:49:54.537Z,70.67
2017-01-10T11:51:04.902Z,70.48
2017-01-10T11:52:15.674Z,69.82
2017-01-10T11:53:26.019Z,69.91
2017-01-10T11:54:36.376Z,69.34
2017-01-10T11:55:46.360Z,69.44
2017-01-10T11:56:57.103Z,69.53
2017-01-10T11:58:07.460Z,68.87
2017-01-10T11:59:17.793Z,68.68
2017-01-10T12:00:28.145Z,68.71
2017-01-10T12:01:38.885Z,68.71
2017-01-10T12:02:49.639Z,68.71
2017-01-10T12:04:00.404Z,68.9
2017-01-10T12:05:11.131Z,68.71
2017-01-10T12:06:21.487Z,68.68
2017-01-10T12:07:32.251Z,69.44
2017-01-10T12:08:42.994Z,68.96
2017-01-10T12:09:53.347Z,69.06
2017-01-10T12:11:03.716Z,68.87
2017-01-10T12:12:14.076Z,69.15
2017-01-10T12:13:24.486Z,68.59
2017-01-10T12:14:34.825Z,68.02
2017-01-10T12:15:45.170Z,68.87
2017-01-10T12:16:55.124Z,68.77
2017-01-10T12:18:05.880Z,68.77
2017-01-10T12:19:16.647Z,68.02
2017-01-10T12:20:27.409Z,68.21
2017-01-10T12:21:38.148Z,68.4
2017-01-10T12:22:48.902Z,68.68
2017-01-10T12:23:59.272Z,68.77
2017-01-10T12:25:10.041Z,68.87
2017-01-10T12:26:20.397Z,69.06
2017-01-10T12:27:31.140Z,69.34
2017-01-10T12:28:41.879Z,69.25
2017-01-10T12:29:52.248Z,69.15
2017-01-10T12:31:02.993Z,68.96
2017-01-10T12:32:13.748Z,68.02
2017-01-10T12:33:24.478Z,67.68
2017-01-10T12:34:35.234Z,67.2
2017-01-10T12:35:46.223Z,67.11
2017-01-10T12:36:56.962Z,66.92
2017-01-10T12:38:07.744Z,66.16
2017-01-10T12:39:18.112Z,66.67
2017-01-10T12:40:28.468Z,66.38
2017-01-10T12:41:39.442Z,66.28
2017-01-10T12:42:50.193Z,66.95
2017-01-10T12:44:00.557Z,66.38
2017-01-10T12:45:11.292Z,65.09
2017-01-10T12:46:22.045Z,65.12
2017-01-10T12:47:32.782Z,64.17
2017-01-10T12:48:43.540Z,63.73
2017-01-10T12:49:53.900Z,63.92
2017-01-10T12:51:04.654Z,63.48
2017-01-10T12:52:15.021Z,63.48
2017-01-10T12:53:25.778Z,63.95
2017-01-10T12:54:36.552Z,64.33
2017-01-10T12:55:47.345Z,65.16
2017-01-10T12:56:58.099Z,65.63
2017-01-10T12:58:08.918Z,66.01
2017-01-10T12:59:19.666Z,65.88
2017-01-10T13:00:30.060Z,65.82
2017-01-10T13:01:40.811Z,65.63
2017-01-10T13:02:51.612Z,65.16
2017-01-10T13:04:02.373Z,64.14
2017-01-10T13:05:12.333Z,63.67
2017-01-10T13:06:23.094Z,64.43
2017-01-10T13:07:33.458Z,65.37
2017-01-10T13:08:43.798Z,66.77
2017-01-10T13:09:54.545Z,67.11
2017-01-10T13:11:05.315Z,68.12
2017-01-10T13:12:16.051Z,68.31
2017-01-10T13:13:26.393Z,69.13
2017-01-10T13:14:36.759Z,69.22
2017-01-10T13:15:47.112Z,69.19
2017-01-10T13:16:57.457Z,69
2017-01-10T13:18:08.187Z,69.66
2017-01-10T13:19:18.926Z,69.57
2017-01-10T13:20:29.297Z,69.38
2017-01-10T13:21:40.053Z,69.34
2017-01-10T13:22:50.413Z,69.53
2017-01-10T13:24:00.756Z,69.63
2017-01-10T13:25:11.502Z,69.53
2017-01-10T13:26:21.885Z,69.91
2017-01-10T13:27:32.237Z,69.34
2017-01-10T13:28:42.989Z,69.87
2017-01-10T13:29:53.738Z,69.87
2017-01-10T13:31:04.481Z,69.59
2017-01-10T13:32:15.228Z,69.68
2017-01-10T13:33:25.585Z,69.68
2017-01-10T13:34:36.366Z,69.59
2017-01-10T13:35:47.107Z,69.87
2017-01-10T13:36:57.851Z,69.87
2017-01-10T13:38:08.205Z,69.59
2017-01-10T13:39:18.975Z,69.97
2017-01-10T13:40:29.312Z,69.87
2017-01-10T13:41:39.664Z,69.87
2017-01-10T13:42:50.407Z,69.84
2017-01-10T13:44:01.151Z,69.84
2017-01-10T13:45:11.899Z,69.56
2017-01-10T13:46:22.238Z,70.03
2017-01-10T13:47:32.608Z,70.03
2017-01-10T13:48:42.959Z,69.84
2017-01-10T13:49:53.688Z,70.21
2017-01-10T13:51:04.468Z,70.5
2017-01-10T13:52:14.828Z,70.69
2017-01-10T13:53:24.805Z,70.4
2017-01-10T13:54:35.545Z,70.31
2017-01-10T13:55:46.280Z,70.56
2017-01-10T13:56:57.012Z,70.47
2017-01-10T13:58:07.760Z,70.65
2017-01-10T13:59:18.106Z,70.4
2017-01-10T14:00:28.436Z,70.18
2017-01-10T14:01:38.772Z,69.9
2017-01-10T14:02:49.103Z,70.09
2017-01-10T14:03:59.451Z,70.18
2017-01-10T14:05:10.209Z,70.47
2017-01-10T14:06:20.551Z,70.56
2017-01-10T14:07:31.287Z,70.56
2017-01-10T14:08:41.248Z,70.47
2017-01-10T14:09:52.002Z,70.47
2017-01-10T14:11:02.753Z,70.75
2017-01-10T14:12:13.112Z,70.65
2017-01-10T14:13:23.871Z,70.65
2017-01-10T14:14:34.629Z,70.62
2017-01-10T14:15:44.981Z,70.24
2017-01-10T14:16:55.719Z,70.53
2017-01-10T14:18:06.465Z,70.62
2017-01-10T14:19:17.207Z,70.72
2017-01-10T14:20:27.798Z,70.43
2017-01-10T14:21:38.549Z,70.34
2017-01-10T14:22:49.292Z,70.62
2017-01-10T14:24:00.049Z,70.43
2017-01-10T14:25:10.826Z,70.62
2017-01-10T14:26:21.180Z,70.53
2017-01-10T14:27:31.145Z,70.53
2017-01-10T14:28:41.869Z,69.96
2017-01-10T14:29:52.205Z,69.96
2017-01-10T14:31:02.939Z,70.15
2017-01-10T14:32:12.895Z,70.15
2017-01-10T14:33:23.239Z,70.24
2017-01-10T14:34:33.992Z,70.62
2017-01-10T14:35:44.335Z,69.96
2017-01-10T14:36:55.085Z,69.96
2017-01-10T14:38:05.821Z,69.77
2017-01-10T14:39:16.564Z,70.15
2017-01-10T14:40:27.304Z,69.86
2017-01-10T14:41:37.650Z,69.86
2017-01-10T14:42:48.394Z,70.15
2017-01-10T14:43:58.724Z,70.34
2017-01-10T14:45:09.084Z,70.24
2017-01-10T14:46:19.838Z,70.24
2017-01-10T14:47:30.593Z,70.53
2017-01-10T14:48:41.342Z,70.34
2017-01-10T14:49:52.087Z,70.43
2017-01-10T14:51:02.496Z,70.43
2017-01-10T14:52:12.850Z,70.24
2017-01-10T14:53:23.590Z,70.24
2017-01-10T14:54:34.335Z,70.34
2017-01-10T14:55:45.096Z,70.72
2017-01-10T14:56:55.448Z,70.62
2017-01-10T14:58:05.815Z,70.72
2017-01-10T14:59:16.560Z,70.81
2017-01-10T15:00:27.300Z,70.62
2017-01-10T15:01:37.646Z,70.81
2017-01-10T15:02:48.383Z,70.43
2017-01-10T15:03:58.719Z,70.81
2017-01-10T15:05:09.466Z,70.34
2017-01-10T15:06:20.217Z,70.24
2017-01-10T15:07:30.982Z,70.62
2017-01-10T15:08:41.809Z,70.72
2017-01-10T15:09:52.608Z,70.43
2017-01-10T15:11:02.552Z,70.53
2017-01-10T15:12:13.307Z,70.53
2017-01-10T15:13:24.056Z,70.62
2017-01-10T15:14:34.800Z,70.53
2017-01-10T15:15:45.149Z,70.34
2017-01-10T15:16:55.893Z,70.81
2017-01-10T15:18:06.243Z,70.62
2017-01-10T15:19:17.002Z,70.72
2017-01-10T15:20:27.742Z,70.72
2017-01-10T15:21:38.502Z,70.53
2017-01-10T15:22:49.246Z,70.72
2017-01-10T15:23:59.991Z,70.24
2017-01-10T15:25:10.371Z,70.53
2017-01-10T15:26:21.133Z,70.62
2017-01-10T15:27:31.888Z,70.53
2017-01-10T15:28:42.233Z,70.53
2017-01-10T15:29:52.570Z,70.62
2017-01-10T15:31:02.909Z,70.62
2017-01-10T15:32:13.262Z,70.53
2017-01-10T15:33:23.997Z,70.3
2017-01-10T15:34:34.357Z,70.3
2017-01-10T15:35:44.715Z,70.3
2017-01-10T15:36:55.476Z,70.3
2017-01-10T15:38:05.832Z,70.49
2017-01-10T15:39:16.165Z,70.49
2017-01-10T15:40:26.518Z,70.77
2017-01-10T15:41:37.276Z,70.58
2017-01-10T15:42:48.029Z,70.3
2017-01-10T15:43:58.786Z,70.39
2017-01-10T15:45:09.539Z,70.68
2017-01-10T15:46:20.286Z,70.58
2017-01-10T15:47:30.618Z,70.39